Time;durP1;ratioP1;P1;durP2;ratioP2;P2;SDS_P1;SDS_P2;PMS_P1;PMS_P2;Temp;Humidity;BMP_temperature;BMP_pressure;BME280_temperature;BME280_humidity;BME280_pressure;Samples;Min_cycle;Max_cycle;Signal;HPM_P1;HPM_P2
2022/06/23 00:00:08;;;;;;;12.85;7.55;;;18.60;99.90;;;;;;5030438;28;39718;-77
2022/06/23 00:02:38;;;;;;;15.75;7.63;;;18.60;99.90;;;;;;5034760;28;38131;-76
2022/06/23 00:05:11;;;;;;;12.45;7.82;;;18.50;99.90;;;;;;5064358;28;39322;-77
2022/06/23 00:07:42;;;;;;;12.75;8.05;;;18.50;99.90;;;;;;5054251;28;39460;-76
2022/06/23 00:10:22;;;;;;;14.95;7.82;;;18.50;99.90;;;;;;5060296;27;40215;-76
2022/06/23 00:12:49;;;;;;;14.50;8.30;;;18.50;99.90;;;;;;5054630;28;39450;-76
2022/06/23 00:15:36;;;;;;;11.95;7.78;;;18.50;99.90;;;;;;5045077;28;40604;-76
2022/06/23 00:18:05;;;;;;;11.30;7.00;;;18.40;99.90;;;;;;5060547;28;38845;-76
2022/06/23 00:20:53;;;;;;;12.90;7.90;;;18.40;99.90;;;;;;5065039;27;47536;-76
2022/06/23 00:23:43;;;;;;;12.98;8.07;;;18.40;99.90;;;;;;5058543;28;37874;-77
2022/06/23 00:26:19;;;;;;;17.95;7.90;;;18.40;99.90;;;;;;5048070;28;40377;-77
2022/06/23 00:28:53;;;;;;;17.10;7.85;;;18.40;99.90;;;;;;5052535;28;40496;-77
2022/06/23 00:31:27;;;;;;;14.25;6.95;;;18.30;99.90;;;;;;5054547;27;38345;-77
2022/06/23 00:33:55;;;;;;;12.65;7.40;;;18.30;99.90;;;;;;5053721;27;37341;-77
2022/06/23 00:36:35;;;;;;;13.25;7.40;;;18.30;99.90;;;;;;5053444;27;38856;-77
2022/06/23 00:39:20;;;;;;;12.95;7.70;;;18.30;99.90;;;;;;5048543;28;37790;-77
2022/06/23 00:41:48;;;;;;;15.80;7.35;;;18.30;99.90;;;;;;5049817;28;48500;-77
2022/06/23 00:44:31;;;;;;;13.95;7.07;;;18.30;99.90;;;;;;5046938;27;37999;-76
2022/06/23 00:47:02;;;;;;;13.55;6.57;;;18.30;99.90;;;;;;5055104;28;39420;-76
2022/06/23 00:49:52;;;;;;;11.38;7.10;;;18.20;99.90;;;;;;5087890;27;47352;-76
2022/06/23 00:52:33;;;;;;;10.77;6.82;;;18.20;99.90;;;;;;5069765;27;39732;-76
2022/06/23 00:55:08;;;;;;;8.65;7.05;;;18.20;99.90;;;;;;5056011;27;37402;-78
2022/06/23 00:57:41;;;;;;;10.93;6.95;;;18.20;99.90;;;;;;5077036;27;47304;-78
2022/06/23 01:00:24;;;;;;;10.60;6.72;;;18.10;99.90;;;;;;5063781;27;38879;-77
2022/06/23 01:03:02;;;;;;;11.32;6.68;;;18.10;99.90;;;;;;5039914;28;37512;-77
2022/06/23 01:06:05;;;;;;;12.70;6.72;;;18.00;99.90;;;;;;5072375;28;38279;-77
2022/06/23 01:08:45;;;;;;;10.98;6.22;;;18.00;99.90;;;;;;5007175;28;48102;-77
2022/06/23 01:11:34;;;;;;;12.27;7.38;;;18.00;99.90;;;;;;5052417;27;38300;-78
2022/06/23 01:14:21;;;;;;;12.30;6.70;;;17.90;99.90;;;;;;5061994;28;38405;-77
2022/06/23 01:16:55;;;;;;;11.32;6.90;;;17.90;99.90;;;;;;5054095;27;48293;-78
2022/06/23 01:19:54;;;;;;;12.80;7.38;;;17.90;99.90;;;;;;5057676;27;39822;-77
2022/06/23 01:22:50;;;;;;;11.90;7.28;;;17.90;99.90;;;;;;5047536;28;40482;-77
2022/06/23 01:25:28;;;;;;;9.95;6.72;;;17.90;99.90;;;;;;5058036;28;38037;-77
2022/06/23 01:28:09;;;;;;;14.18;6.55;;;17.90;99.90;;;;;;5075020;27;37890;-77
2022/06/23 01:31:04;;;;;;;12.20;6.82;;;17.80;99.90;;;;;;5035604;28;46814;-77
2022/06/23 01:33:57;;;;;;;10.48;6.70;;;17.80;99.90;;;;;;5040609;28;47327;-77
2022/06/23 01:36:37;;;;;;;13.10;7.00;;;17.80;99.90;;;;;;5060196;27;39609;-77
2022/06/23 01:39:34;;;;;;;11.10;7.13;;;17.80;99.90;;;;;;5058386;27;37875;-77
2022/06/23 01:42:13;;;;;;;12.70;7.28;;;17.70;99.90;;;;;;5063633;27;40094;-77
2022/06/23 01:45:21;;;;;;;10.75;6.63;;;17.70;99.90;;;;;;5033714;28;47317;-77
2022/06/23 01:48:51;;;;;;;13.73;6.75;;;17.70;99.90;;;;;;5024727;28;47268;-77
2022/06/23 01:51:31;;;;;;;12.70;6.68;;;17.70;99.90;;;;;;4994374;28;47280;-77
2022/06/23 01:54:25;;;;;;;9.55;7.32;;;17.70;99.90;;;;;;5016729;28;38569;-77
2022/06/23 01:57:00;;;;;;;12.82;7.10;;;17.60;99.90;;;;;;5046963;27;48611;-77
2022/06/23 01:59:45;;;;;;;13.23;7.40;;;17.60;99.90;;;;;;5055216;28;39273;-76
2022/06/23 02:02:11;;;;;;;11.30;7.38;;;17.60;99.90;;;;;;5051617;27;38911;-77
2022/06/23 02:04:59;;;;;;;16.35;6.95;;;17.60;99.90;;;;;;5061023;27;41502;-77
2022/06/23 02:07:41;;;;;;;12.43;6.45;;;17.60;99.90;;;;;;5046563;28;39597;-78
2022/06/23 02:10:37;;;;;;;9.27;6.40;;;17.60;99.90;;;;;;5079176;27;39103;-78
2022/06/23 02:13:04;;;;;;;12.05;6.90;;;17.50;99.90;;;;;;5061765;27;35860;-78
2022/06/23 02:15:53;;;;;;;10.50;6.65;;;17.50;99.90;;;;;;5093430;27;39648;-78
2022/06/23 02:18:44;;;;;;;13.63;6.90;;;17.50;99.90;;;;;;5052268;27;38757;-77
2022/06/23 02:21:36;;;;;;;13.18;6.68;;;17.40;99.90;;;;;;5046021;28;37752;-77
2022/06/23 02:24:26;;;;;;;;;;;17.40;99.90;;;;;;5049074;27;37256;-78
2022/06/23 02:27:33;;;;;;;10.30;6.50;;;17.40;99.90;;;;;;5051282;28;39979;-77
2022/06/23 02:30:10;;;;;;;13.05;7.18;;;17.40;99.90;;;;;;4995215;28;47603;-77
2022/06/23 02:33:24;;;;;;;13.63;7.07;;;17.30;99.90;;;;;;5053197;28;48172;-77
2022/06/23 02:36:17;;;;;;;11.25;7.10;;;17.30;99.90;;;;;;5029706;28;48522;-77
2022/06/23 02:38:47;;;;;;;;;;;17.20;99.90;;;;;;5022328;28;49333;-77
2022/06/23 02:41:43;;;;;;;12.35;7.15;;;17.20;99.90;;;;;;5042667;28;40199;-77
2022/06/23 02:44:30;;;;;;;10.98;7.05;;;17.20;99.90;;;;;;5032451;28;38149;-77
2022/06/23 02:47:11;;;;;;;10.85;6.43;;;17.20;99.90;;;;;;5059859;27;37065;-79
2022/06/23 02:50:07;;;;;;;12.03;6.60;;;17.20;99.90;;;;;;5054156;27;48538;-78
2022/06/23 02:53:04;;;;;;;13.20;7.50;;;17.20;99.90;;;;;;5042896;28;47924;-79
2022/06/23 02:55:43;;;;;;;12.40;6.60;;;17.10;99.90;;;;;;5056645;27;47346;-77
2022/06/23 02:58:41;;;;;;;10.68;6.93;;;17.10;99.90;;;;;;5037041;28;37142;-78
2022/06/23 03:01:25;;;;;;;11.18;6.47;;;17.10;99.90;;;;;;5049989;27;39703;-78
2022/06/23 03:04:10;;;;;;;9.05;6.65;;;17.10;99.90;;;;;;5050833;28;39565;-77
2022/06/23 03:06:47;;;;;;;9.45;7.13;;;17.10;99.90;;;;;;5055943;27;48820;-77
2022/06/23 03:09:41;;;;;;;9.25;7.13;;;17.10;99.90;;;;;;5059026;27;38331;-77
2022/06/23 03:12:11;;;;;;;13.60;7.38;;;17.10;99.90;;;;;;5049530;27;37936;-78
2022/06/23 03:15:08;;;;;;;11.38;7.65;;;17.10;99.90;;;;;;5052228;28;38160;-78
2022/06/23 03:17:34;;;;;;;12.70;7.18;;;17.10;99.90;;;;;;5058810;27;48149;-78
2022/06/23 03:20:13;;;;;;;11.13;6.78;;;17.10;99.90;;;;;;5044778;28;36722;-78
2022/06/23 03:22:48;;;;;;;11.35;6.70;;;17.10;99.90;;;;;;5031206;28;49078;-78
2022/06/23 03:25:37;;;;;;;17.10;8.13;;;17.10;99.90;;;;;;5066839;27;39047;-78
2022/06/23 03:28:21;;;;;;;14.70;7.60;;;17.10;99.90;;;;;;5057841;27;38568;-78
2022/06/23 03:31:05;;;;;;;9.00;6.60;;;17.10;99.90;;;;;;5040690;28;36164;-78
2022/06/23 03:33:44;;;;;;;11.75;7.00;;;17.10;99.90;;;;;;5055308;28;47316;-77
2022/06/23 03:36:33;;;;;;;12.80;6.78;;;17.10;99.90;;;;;;5072689;28;37648;-77
2022/06/23 03:42:25;;;;;;;10.93;6.18;;;17.10;99.90;;;;;;5054843;27;49206;-77
2022/06/23 03:45:20;;;;;;;12.68;6.78;;;17.10;99.90;;;;;;5017422;28;47197;-78
2022/06/23 03:48:06;;;;;;;10.88;6.53;;;17.10;99.90;;;;;;5081439;28;45933;-78
2022/06/23 03:51:05;;;;;;;7.55;5.93;;;17.10;99.90;;;;;;5052827;28;47150;-78
2022/06/23 03:53:39;;;;;;;9.95;6.45;;;17.10;99.90;;;;;;5050709;28;47322;-78
2022/06/23 03:56:14;;;;;;;11.20;7.05;;;17.10;99.90;;;;;;5043088;28;40716;-77
2022/06/23 03:58:43;;;;;;;12.93;6.90;;;17.10;99.90;;;;;;5054005;27;39650;-78
2022/06/23 04:01:12;;;;;;;9.85;6.45;;;17.10;99.90;;;;;;5057994;27;39254;-77
2022/06/23 04:03:59;;;;;;;10.10;6.93;;;17.20;99.90;;;;;;5059757;28;37902;-77
2022/06/23 04:06:38;;;;;;;11.73;6.10;;;17.20;99.90;;;;;;5045226;28;37803;-77
2022/06/23 04:09:23;;;;;;;10.90;7.32;;;17.20;99.90;;;;;;5064213;27;40097;-78
2022/06/23 04:12:12;;;;;;;12.20;7.00;;;17.20;99.90;;;;;;5053058;27;38955;-77
2022/06/23 04:14:49;;;;;;;8.18;6.28;;;17.20;99.90;;;;;;5051759;28;47240;-78
2022/06/23 04:17:21;;;;;;;11.38;6.72;;;17.20;99.90;;;;;;5050999;27;40026;-77
2022/06/23 04:19:52;;;;;;;10.20;6.40;;;17.20;99.90;;;;;;5055801;27;38080;-78
2022/06/23 04:22:56;;;;;;;10.55;6.28;;;17.20;99.90;;;;;;5053058;27;39281;-77
2022/06/23 04:25:36;;;;;;;11.30;6.30;;;17.20;99.90;;;;;;5007278;27;39436;-77
2022/06/23 04:28:03;;;;;;;8.75;6.10;;;17.20;99.90;;;;;;5082177;27;39417;-78
2022/06/23 04:30:36;;;;;;;12.60;7.68;;;17.20;99.90;;;;;;5052553;28;40554;-78
2022/06/23 04:33:07;;;;;;;10.15;6.63;;;17.30;99.90;;;;;;5078043;27;40386;-77
2022/06/23 04:35:37;;;;;;;9.18;6.22;;;17.30;99.90;;;;;;5047778;28;48002;-77
2022/06/23 04:38:12;;;;;;;8.32;5.80;;;17.40;99.90;;;;;;5058285;27;39504;-78
2022/06/23 04:40:59;;;;;;;9.18;6.55;;;17.40;99.90;;;;;;5085811;28;40238;-76
2022/06/23 04:43:41;;;;;;;12.02;6.40;;;17.40;99.90;;;;;;5052121;27;38769;-77
2022/06/23 04:46:40;;;;;;;9.70;6.47;;;17.40;99.90;;;;;;5053444;27;37074;-77
2022/06/23 04:49:28;;;;;;;8.82;6.28;;;17.50;99.90;;;;;;5015464;28;41153;-77
2022/06/23 04:52:05;;;;;;;9.23;6.10;;;17.50;99.90;;;;;;5055044;27;38746;-77
2022/06/23 04:55:24;;;;;;;9.77;6.40;;;17.50;99.90;;;;;;5058224;28;48718;-77
2022/06/23 04:58:12;;;;;;;8.63;6.45;;;17.50;99.90;;;;;;5048388;28;47319;-77
2022/06/23 05:00:48;;;;;;;9.18;6.78;;;17.50;99.90;;;;;;5049125;28;46987;-78
2022/06/23 05:03:35;;;;;;;14.15;6.28;;;17.70;99.90;;;;;;5076522;28;39698;-78
2022/06/23 05:06:37;;;;;;;9.80;6.38;;;17.90;99.90;;;;;;5070353;28;37792;-78
2022/06/23 05:09:34;;;;;;;11.45;6.18;;;18.30;99.90;;;;;;5069886;28;46038;-76
2022/06/23 05:12:05;;;;;;;10.50;6.40;;;18.60;99.90;;;;;;5054364;28;48005;-77
2022/06/23 05:14:53;;;;;;;14.90;6.47;;;18.70;99.90;;;;;;5077926;28;47545;-77
2022/06/23 05:17:23;;;;;;;11.10;6.20;;;18.90;99.90;;;;;;5039053;28;38297;-76
2022/06/23 05:19:54;;;;;;;12.77;6.85;;;19.00;99.90;;;;;;5039642;28;36663;-76
2022/06/23 05:22:35;;;;;;;7.97;6.20;;;19.00;99.90;;;;;;5038772;28;39154;-76
2022/06/23 05:25:32;;;;;;;9.70;6.15;;;19.00;99.90;;;;;;5039869;28;39465;-77
2022/06/23 05:28:01;;;;;;;12.52;6.28;;;19.10;99.90;;;;;;5051715;28;47466;-76
2022/06/23 05:30:31;;;;;;;7.93;5.00;;;19.40;99.90;;;;;;5084666;27;47342;-76
2022/06/23 05:33:11;;;;;;;9.60;6.32;;;19.50;99.90;;;;;;5036776;28;38865;-77
2022/06/23 05:35:42;;;;;;;9.25;6.30;;;19.50;99.90;;;;;;5095661;28;47264;-76
2022/06/23 05:38:21;;;;;;;10.23;6.85;;;19.70;99.90;;;;;;5047760;28;38303;-76
2022/06/23 05:40:49;;;;;;;9.35;5.78;;;19.80;99.90;;;;;;5065499;28;36371;-76
2022/06/23 05:43:17;;;;;;;10.07;5.35;;;19.80;99.90;;;;;;5061323;27;38900;-76
2022/06/23 05:45:47;;;;;;;8.55;5.50;;;19.90;99.90;;;;;;5065092;27;38957;-76
2022/06/23 05:48:35;;;;;;;10.13;5.57;;;20.10;99.90;;;;;;5064606;27;38291;-76
2022/06/23 05:51:10;;;;;;;9.98;6.30;;;20.30;99.90;;;;;;5067252;27;38746;-76
2022/06/23 05:53:58;;;;;;;9.13;5.93;;;20.40;99.90;;;;;;5055166;28;38908;-76
2022/06/23 05:56:39;;;;;;;13.02;6.25;;;20.60;99.90;;;;;;5065177;28;39055;-75
2022/06/23 05:59:20;;;;;;;10.55;6.43;;;20.70;99.90;;;;;;5067525;27;37739;-75
2022/06/23 06:01:54;;;;;;;10.90;5.50;;;20.80;99.90;;;;;;5080886;27;39012;-76
2022/06/23 06:04:30;;;;;;;11.15;6.50;;;20.70;99.90;;;;;;5063540;27;41541;-75
2022/06/23 06:06:58;;;;;;;6.85;5.10;;;20.90;99.90;;;;;;5060934;28;39529;-77
2022/06/23 06:09:36;;;;;;;18.92;6.43;;;21.00;99.90;;;;;;5060000;27;39033;-78
2022/06/23 06:12:26;;;;;;;7.57;5.40;;;21.10;99.90;;;;;;5061130;27;37987;-77
2022/06/23 06:15:01;;;;;;;8.43;5.95;;;21.20;99.90;;;;;;5050424;28;39948;-77
2022/06/23 06:17:31;;;;;;;9.32;5.53;;;21.20;99.90;;;;;;5054037;28;49118;-77
2022/06/23 06:20:00;;;;;;;9.43;5.72;;;21.30;99.90;;;;;;5092094;27;38878;-77
2022/06/23 06:22:53;;;;;;;9.93;5.68;;;21.40;99.90;;;;;;5095788;28;36917;-77
2022/06/23 06:25:24;;;;;;;;;;;21.40;99.90;;;;;;5058616;28;37493;-77
2022/06/23 06:27:50;;;;;;;11.27;5.75;;;21.80;99.90;;;;;;5045799;28;39222;-77
2022/06/23 06:30:31;;;;;;;10.68;5.68;;;21.80;99.90;;;;;;5040946;28;37499;-78
2022/06/23 06:32:58;;;;;;;9.15;6.07;;;21.50;99.90;;;;;;5045454;28;37859;-77
2022/06/23 06:35:31;;;;;;;9.38;5.15;;;21.30;99.90;;;;;;5061223;27;39552;-77
2022/06/23 06:38:06;;;;;;;12.07;6.45;;;21.50;99.90;;;;;;5065796;27;38019;-77
2022/06/23 06:40:34;;;;;;;9.18;6.03;;;21.60;99.90;;;;;;5043926;28;47383;-77
2022/06/23 06:43:08;;;;;;;13.52;6.88;;;21.60;99.90;;;;;;5060134;28;36997;-78
2022/06/23 06:45:37;;;;;;;12.27;6.65;;;21.50;99.90;;;;;;5061104;28;47208;-78
2022/06/23 06:48:12;;;;;;;8.65;5.30;;;21.50;99.90;;;;;;5062035;28;37707;-78
2022/06/23 06:50:45;;;;;;;12.68;6.35;;;21.90;99.90;;;;;;5062483;28;49447;-78
2022/06/23 06:53:20;;;;;;;9.57;6.93;;;22.20;99.90;;;;;;5078881;27;37788;-78
2022/06/23 06:56:04;;;;;;;9.52;6.00;;;22.20;99.90;;;;;;5055594;28;40594;-78
2022/06/23 06:58:37;;;;;;;11.02;6.10;;;22.20;99.90;;;;;;5077959;28;48028;-78
2022/06/23 07:01:27;;;;;;;9.60;6.03;;;22.30;99.90;;;;;;5095308;27;40206;-77
2022/06/23 07:03:55;;;;;;;10.10;6.97;;;22.80;99.90;;;;;;5041193;28;38268;-78
2022/06/23 07:06:29;;;;;;;10.98;6.75;;;23.00;99.90;;;;;;5068432;27;38198;-78
2022/06/23 07:09:04;;;;;;;8.10;5.60;;;23.00;99.90;;;;;;5051707;28;39481;-78
2022/06/23 07:11:58;;;;;;;9.88;5.82;;;23.20;99.90;;;;;;5066431;27;48663;-77
2022/06/23 07:14:37;;;;;;;11.20;5.80;;;23.00;99.90;;;;;;5042024;27;37414;-77
2022/06/23 07:17:34;;;;;;;9.55;6.18;;;23.00;99.90;;;;;;5056068;27;39564;-77
2022/06/23 07:20:18;;;;;;;13.15;6.90;;;23.30;99.90;;;;;;5074866;28;40377;-78
2022/06/23 07:23:12;;;;;;;11.35;6.22;;;23.30;99.90;;;;;;5064665;27;48738;-78
2022/06/23 07:26:25;;;;;;;9.50;5.70;;;23.60;99.90;;;;;;5060911;28;48021;-78
2022/06/23 07:28:54;;;;;;;;;;;24.10;99.90;;;;;;5059486;28;49068;-76
2022/06/23 07:31:30;;;;;;;11.00;6.32;;;24.20;99.90;;;;;;5064884;27;39879;-76
2022/06/23 07:34:09;;;;;;;8.60;6.40;;;24.40;99.90;;;;;;5064311;28;39801;-76
2022/06/23 07:36:59;;;;;;;12.25;6.50;;;24.40;99.90;;;;;;5044791;28;47425;-77
2022/06/23 07:39:33;;;;;;;9.48;6.93;;;24.20;99.90;;;;;;5054625;28;38958;-76
2022/06/23 07:42:20;;;;;;;12.90;5.82;;;24.10;99.90;;;;;;5041004;28;38638;-77
2022/06/23 07:44:58;;;;;;;8.32;6.15;;;23.90;99.90;;;;;;5058170;28;48719;-76
2022/06/23 07:47:24;;;;;;;15.07;7.00;;;24.00;99.90;;;;;;5062453;27;36774;-77
2022/06/23 07:49:50;;;;;;;9.02;5.50;;;24.40;99.90;;;;;;5043473;28;39701;-76
2022/06/23 07:52:19;;;;;;;8.85;6.68;;;24.20;99.90;;;;;;5045341;28;39605;-76
2022/06/23 07:54:49;;;;;;;8.75;6.15;;;24.40;99.90;;;;;;5044398;28;39307;-76
2022/06/23 07:57:15;;;;;;;11.07;6.22;;;24.50;99.90;;;;;;5047355;28;37986;-77
2022/06/23 08:00:06;;;;;;;10.02;6.65;;;24.40;99.90;;;;;;5043059;28;39939;-77
2022/06/23 08:03:17;;;;;;;10.55;6.47;;;24.60;99.90;;;;;;5060955;27;48634;-77
2022/06/23 08:05:43;;;;;;;11.05;6.85;;;24.60;99.90;;;;;;5054422;28;47042;-77
2022/06/23 08:08:15;;;;;;;11.05;7.07;;;24.60;99.90;;;;;;5055098;27;37682;-76
2022/06/23 08:10:42;;;;;;;13.02;7.03;;;24.50;99.90;;;;;;5043810;28;39845;-76
2022/06/23 08:13:27;;;;;;;6.65;5.47;;;24.90;99.90;;;;;;5062597;28;40448;-76
2022/06/23 08:18:49;;;;;;;11.20;7.20;;;25.70;99.90;;;;;;5050021;27;48937;-75
2022/06/23 08:21:24;;;;;;;;;;;25.90;99.90;;;;;;5056074;28;39614;-76
2022/06/23 08:24:02;;;;;;;8.77;6.00;;;26.20;99.90;;;;;;5064979;28;39325;-75
2022/06/23 08:26:29;;;;;;;8.73;6.38;;;26.30;99.90;;;;;;5074581;27;47246;-75
2022/06/23 08:29:00;;;;;;;10.10;6.47;;;26.30;99.90;;;;;;5053273;27;36612;-76
2022/06/23 08:31:28;;;;;;;8.90;6.85;;;26.20;99.90;;;;;;5048405;28;37868;-75
2022/06/23 08:33:55;;;;;;;10.93;6.40;;;25.90;99.90;;;;;;5052298;28;38888;-76
2022/06/23 08:36:27;;;;;;;10.88;7.03;;;25.90;99.90;;;;;;5034639;28;40289;-75
2022/06/23 08:39:05;;;;;;;9.10;5.72;;;25.60;99.90;;;;;;5036441;28;37924;-75
2022/06/23 08:41:54;;;;;;;11.77;6.30;;;25.90;99.90;;;;;;5079499;27;47153;-75
2022/06/23 08:44:32;;;;;;;9.25;6.15;;;26.00;99.90;;;;;;5063511;27;40678;-76
2022/06/23 08:47:14;;;;;;;12.55;5.93;;;26.20;99.90;;;;;;5060540;28;40041;-75
2022/06/23 08:49:59;;;;;;;11.05;6.35;;;26.50;99.90;;;;;;5061137;27;48771;-76
2022/06/23 08:52:34;;;;;;;9.70;5.88;;;26.80;99.90;;;;;;5077355;27;39482;-75
2022/06/23 08:55:04;;;;;;;12.25;6.85;;;26.70;99.90;;;;;;5093670;27;39516;-76
2022/06/23 08:57:33;;;;;;;13.40;7.43;;;25.90;99.90;;;;;;5050614;27;48662;-77
2022/06/23 09:00:09;;;;;;;10.65;7.10;;;26.00;99.90;;;;;;5064348;28;36681;-76
2022/06/23 09:02:44;;;;;;;14.60;6.20;;;26.20;99.90;;;;;;5089877;27;47728;-75
2022/06/23 09:05:31;;;;;;;11.43;7.28;;;26.70;99.90;;;;;;5053227;28;40450;-76
2022/06/23 09:08:13;;;;;;;11.30;7.15;;;26.60;99.90;;;;;;5067058;28;39279;-76
2022/06/23 09:10:59;;;;;;;12.18;7.43;;;26.00;99.90;;;;;;5069146;28;48568;-76
2022/06/23 09:13:46;;;;;;;12.65;7.25;;;26.30;99.90;;;;;;5066442;28;40891;-76
2022/06/23 09:16:36;;;;;;;14.23;6.70;;;26.60;99.90;;;;;;5068075;27;39367;-75
2022/06/23 09:19:10;;;;;;;12.77;7.45;;;27.00;99.90;;;;;;5045748;28;38884;-76
2022/06/23 09:22:00;;;;;;;10.30;6.15;;;26.90;99.90;;;;;;5063509;27;38248;-76
2022/06/23 09:25:04;;;;;;;13.35;7.45;;;27.20;99.90;;;;;;5058182;27;40600;-76
2022/06/23 09:27:50;;;;;;;15.23;7.18;;;27.60;99.90;;;;;;5051266;28;47418;-76
2022/06/23 09:30:39;;;;;;;13.82;5.88;;;27.40;99.90;;;;;;5095456;28;39298;-77
2022/06/23 09:33:14;;;;;;;9.75;5.32;;;28.00;99.90;;;;;;5072396;27;37409;-77
2022/06/23 09:35:55;;;;;;;10.20;5.88;;;28.20;99.90;;;;;;5065919;28;40686;-76
2022/06/23 09:38:24;;;;;;;13.65;6.78;;;28.00;99.90;;;;;;5054926;27;40124;-76
2022/06/23 09:41:09;;;;;;;11.18;4.60;;;28.30;99.90;;;;;;5068718;27;39207;-77
2022/06/23 09:43:54;;;;;;;13.10;6.43;;;28.60;99.90;;;;;;5060590;28;49323;-77
2022/06/23 09:46:25;;;;;;;13.35;7.30;;;28.30;99.90;;;;;;5061730;28;39814;-78
2022/06/23 09:49:16;;;;;;;12.10;6.65;;;27.70;99.90;;;;;;5042105;28;39011;-77
2022/06/23 09:51:50;;;;;;;18.02;6.95;;;27.00;99.90;;;;;;5087683;27;47124;-77
2022/06/23 09:54:28;;;;;;;13.43;7.57;;;27.30;99.90;;;;;;5061150;27;39002;-77
2022/06/23 09:57:06;;;;;;;11.93;6.88;;;27.50;99.90;;;;;;5063937;28;40383;-76
2022/06/23 09:59:39;;;;;;;12.20;6.45;;;28.20;99.90;;;;;;5065185;27;49827;-78
2022/06/23 10:02:10;;;;;;;13.75;6.75;;;28.50;99.90;;;;;;5074231;28;40525;-77
2022/06/23 10:04:42;;;;;;;14.00;8.00;;;28.90;99.90;;;;;;5084103;28;38611;-78
2022/06/23 10:07:27;;;;;;;10.98;8.00;;;28.80;99.90;;;;;;5054649;28;38990;-78
2022/06/23 10:10:15;;;;;;;13.10;7.78;;;28.00;99.90;;;;;;5048467;28;39463;-77
2022/06/23 10:12:44;;;;;;;17.45;9.25;;;27.90;99.90;;;;;;5058193;27;48911;-77
2022/06/23 10:15:39;;;;;;;13.85;9.70;;;28.00;99.90;;;;;;5055929;28;37950;-77
2022/06/23 10:18:08;;;;;;;15.20;8.10;;;27.60;99.90;;;;;;5038844;28;39874;-77
2022/06/23 10:20:52;;;;;;;15.52;9.02;;;27.60;99.90;;;;;;5049946;28;38834;-78
2022/06/23 10:23:24;;;;;;;13.73;8.65;;;28.00;99.90;;;;;;5040313;28;38285;-76
2022/06/23 10:26:15;;;;;;;16.95;9.50;;;28.60;99.90;;;;;;5050014;28;37809;-77
2022/06/23 10:28:44;;;;;;;14.40;9.10;;;28.30;99.90;;;;;;5078803;27;47463;-76
2022/06/23 10:31:44;;;;;;;16.23;9.40;;;28.50;99.90;;;;;;5086943;27;38947;-76
2022/06/23 10:34:23;;;;;;;11.93;8.00;;;28.30;99.90;;;;;;5053549;27;39669;-76
2022/06/23 10:37:19;;;;;;;11.50;7.55;;;28.80;99.90;;;;;;5051034;28;37541;-78
2022/06/23 10:40:13;;;;;;;10.82;6.53;;;29.40;99.90;;;;;;5042343;28;48353;-77
2022/06/23 10:43:05;;;;;;;10.82;7.80;;;29.90;99.90;;;;;;5075421;28;46964;-77
2022/06/23 10:45:55;;;;;;;15.18;7.78;;;30.00;99.90;;;;;;5057308;27;48924;-78
2022/06/23 10:48:33;;;;;;;13.25;8.10;;;29.70;99.90;;;;;;5060187;27;38757;-77
2022/06/23 10:51:08;;;;;;;11.82;6.53;;;29.20;99.90;;;;;;5073358;28;38770;-78
2022/06/23 10:53:49;;;;;;;15.18;8.82;;;28.70;99.90;;;;;;5053879;28;47361;-79
2022/06/23 10:56:39;;;;;;;17.23;7.95;;;28.90;99.90;;;;;;5056156;27;39359;-78
2022/06/23 10:59:08;;;;;;;19.88;9.35;;;28.90;99.90;;;;;;5063738;27;37433;-78
2022/06/23 11:01:52;;;;;;;13.35;8.32;;;28.70;99.90;;;;;;5092941;27;39888;-78
2022/06/23 11:04:56;;;;;;;13.77;7.20;;;28.80;99.90;;;;;;5062709;27;38887;-77
2022/06/23 11:07:41;;;;;;;12.68;7.05;;;29.20;99.90;;;;;;5057542;27;37394;-77
2022/06/23 11:10:33;;;;;;;12.85;6.80;;;29.60;99.90;;;;;;5059951;28;36331;-78
2022/06/23 11:13:17;;;;;;;20.65;8.88;;;29.00;99.90;;;;;;5029571;28;38809;-78
2022/06/23 11:15:57;;;;;;;14.60;7.63;;;27.70;99.90;;;;;;5072569;28;47500;-75
2022/06/23 11:18:36;;;;;;;16.08;8.30;;;27.40;99.90;;;;;;5060813;27;37713;-77
2022/06/23 11:21:25;;;;;;;12.85;7.50;;;27.20;99.90;;;;;;5083257;28;36155;-77
2022/06/23 11:24:20;;;;;;;15.63;7.65;;;27.50;99.90;;;;;;5041155;28;38323;-76
2022/06/23 11:27:08;;;;;;;13.45;7.05;;;28.20;99.90;;;;;;5066398;28;47066;-76
2022/06/23 11:30:03;;;;;;;15.50;6.85;;;28.30;99.90;;;;;;5055532;28;47757;-77
2022/06/23 11:32:42;;;;;;;14.07;5.80;;;28.60;99.90;;;;;;5063181;27;49154;-76
2022/06/23 11:35:36;;;;;;;14.50;4.75;;;29.30;99.90;;;;;;5077552;28;39838;-76
2022/06/23 11:38:30;;;;;;;9.82;5.13;;;29.30;99.90;;;;;;5056134;27;37834;-78
2022/06/23 11:41:28;;;;;;;15.75;6.05;;;29.20;99.90;;;;;;5065677;27;39248;-77
2022/06/23 11:44:09;;;;;;;10.70;6.30;;;29.50;99.90;;;;;;5092949;28;47377;-77
2022/06/23 11:46:38;;;;;;;10.95;5.72;;;28.60;99.90;;;;;;5083076;28;46924;-76
2022/06/23 11:49:44;;;;;;;13.50;6.07;;;28.90;99.90;;;;;;5043365;28;40774;-77
2022/06/23 11:52:17;;;;;;;11.75;6.65;;;29.50;99.90;;;;;;5042530;28;38619;-77
2022/06/23 11:55:07;;;;;;;12.38;8.68;;;29.30;99.90;;;;;;5040002;28;39158;-77
2022/06/23 11:57:39;;;;;;;18.83;8.93;;;29.00;99.90;;;;;;5063320;27;48565;-76
2022/06/23 12:00:18;;;;;;;13.02;7.72;;;28.60;99.90;;;;;;5065062;28;38058;-77
2022/06/23 12:03:06;;;;;;;16.67;8.57;;;28.70;99.90;;;;;;5064313;27;37606;-77
2022/06/23 12:05:37;;;;;;;15.30;6.90;;;28.80;99.90;;;;;;5068556;28;49071;-76
2022/06/23 12:08:12;;;;;;;7.72;4.70;;;28.90;99.90;;;;;;5063433;28;37974;-76
2022/06/23 12:10:39;;;;;;;12.90;5.35;;;29.30;99.90;;;;;;5061187;28;38087;-77
2022/06/23 12:13:06;;;;;;;10.02;4.65;;;29.20;99.90;;;;;;5063354;28;37997;-77
2022/06/23 12:15:45;;;;;;;15.35;5.88;;;28.90;99.90;;;;;;5062983;28;37293;-77
2022/06/23 12:18:25;;;;;;;9.50;4.85;;;28.80;99.90;;;;;;5062807;28;39585;-76
2022/06/23 12:21:27;;;;;;;12.23;5.57;;;28.70;99.90;;;;;;5065396;27;40242;-76
2022/06/23 12:24:06;;;;;;;12.23;5.80;;;28.60;99.90;;;;;;5058374;28;47392;-76
2022/06/23 12:26:38;;;;;;;12.02;5.90;;;29.00;99.90;;;;;;5093004;27;46834;-76
2022/06/23 12:29:12;;;;;;;11.32;7.00;;;29.50;99.90;;;;;;5095662;27;39817;-76
2022/06/23 12:32:12;;;;;;;9.35;6.35;;;29.40;99.90;;;;;;5062516;28;47107;-76
2022/06/23 12:34:56;;;;;;;16.00;6.88;;;29.20;99.90;;;;;;5004603;28;47473;-76
2022/06/23 12:37:33;;;;;;;12.60;5.03;;;29.10;99.90;;;;;;5062299;28;35811;-76
2022/06/23 12:40:19;;;;;;;11.32;6.03;;;29.30;99.90;;;;;;5047324;27;39810;-77
2022/06/23 12:42:57;;;;;;;8.52;5.38;;;29.60;99.90;;;;;;5043438;27;46988;-82
2022/06/23 12:45:29;;;;;;;11.25;6.03;;;29.30;99.90;;;;;;5046589;28;40027;-80
2022/06/23 12:48:23;;;;;;;10.02;5.05;;;28.90;99.90;;;;;;5051222;28;20068;-81
2022/06/23 12:51:04;;;;;;;11.30;5.72;;;29.40;99.90;;;;;;5052427;28;46761;-81
2022/06/23 12:54:12;;;;;;;9.50;5.43;;;29.90;99.90;;;;;;5052420;28;47250;-80
2022/06/23 12:56:56;;;;;;;11.70;5.70;;;29.00;99.90;;;;;;5049391;28;47360;-81
2022/06/23 12:59:26;;;;;;;9.57;5.15;;;28.70;99.90;;;;;;5041760;28;37966;-80
2022/06/23 13:01:58;;;;;;;8.88;5.50;;;28.70;99.90;;;;;;5049532;28;38049;-81
2022/06/23 13:04:29;;;;;;;10.10;5.00;;;28.30;99.90;;;;;;5035346;28;39444;-78
2022/06/23 13:07:26;;;;;;;10.50;4.90;;;28.70;99.90;;;;;;5033127;28;41584;-81
2022/06/23 13:10:16;;;;;;;7.97;4.20;;;29.20;99.90;;;;;;5026510;28;47194;-81
2022/06/23 13:13:11;;;;;;;6.70;4.05;;;29.30;99.90;;;;;;5049381;28;47212;-80
2022/06/23 13:15:58;;;;;;;11.82;4.65;;;29.20;99.90;;;;;;5021853;28;47361;-81
2022/06/23 13:18:39;;;;;;;4.88;3.60;;;29.10;99.90;;;;;;5051112;28;39242;-79
2022/06/23 13:21:21;;;;;;;9.50;4.43;;;29.00;99.90;;;;;;5032581;28;35870;-81
2022/06/23 13:23:57;;;;;;;10.73;4.57;;;28.80;99.90;;;;;;5051096;28;42062;-81
2022/06/23 13:26:56;;;;;;;7.85;3.95;;;28.70;99.90;;;;;;5052783;28;38447;-81
2022/06/23 13:29:26;;;;;;;7.60;3.40;;;28.70;99.90;;;;;;5050998;27;38159;-81
2022/06/23 13:32:26;;;;;;;7.97;3.58;;;29.20;99.90;;;;;;5072554;28;37704;-80
2022/06/23 13:35:03;;;;;;;5.35;3.40;;;29.90;99.90;;;;;;5052068;28;47594;-80
2022/06/23 13:38:06;;;;;;;3.70;2.88;;;30.00;99.90;;;;;;5047778;28;48556;-81
2022/06/23 13:40:45;;;;;;;3.95;2.22;;;29.80;99.90;;;;;;4999065;28;46866;-81
2022/06/23 13:43:40;;;;;;;6.55;2.25;;;30.00;99.90;;;;;;5042359;28;38467;-82
2022/06/23 13:46:11;;;;;;;4.63;2.35;;;29.90;99.90;;;;;;5055176;27;38875;-81
2022/06/23 13:49:24;;;;;;;6.53;2.67;;;30.00;99.90;;;;;;5054123;28;38871;-81
2022/06/23 13:51:56;;;;;;;5.95;2.28;;;29.80;99.90;;;;;;5010623;28;49662;-81
2022/06/23 13:54:52;;;;;;;5.13;2.40;;;29.90;99.90;;;;;;5061639;28;37956;-81
2022/06/23 13:57:26;;;;;;;5.28;2.30;;;29.80;99.90;;;;;;5052617;28;38271;-81
2022/06/23 14:00:05;;;;;;;4.53;2.15;;;30.00;99.90;;;;;;5049824;28;39657;-82